Time;durP1;ratioP1;P1;durP2;ratioP2;P2;SDS_P1;SDS_P2;PMS_P1;PMS_P2;Temp;Humidity;BMP_temperature;BMP_pressure;BME280_temperature;BME280_humidity;BME280_pressure;Samples;Min_cycle;Max_cycle;Signal;HPM_P1;HPM_P2
2022/01/31 00:05:41;;;;;;;3.30;1.88;;;;;;;3.68;81.85;99313.80;714068;1174;113650;-77
2022/01/31 00:20:44;;;;;;;5.75;1.38;;;;;;;3.51;81.60;99317.68;714054;1173;115189;-76
2022/01/31 00:35:46;;;;;;;3.10;1.45;;;;;;;3.56;80.23;99325.92;713898;1174;113557;-77
2022/01/31 00:50:48;;;;;;;7.10;1.93;;;;;;;3.65;77.81;99316.64;714100;1174;114584;-77
2022/01/31 01:05:50;;;;;;;4.37;1.90;;;;;;;3.78;78.03;99319.97;713962;1174;115213;-77
2022/01/31 01:20:52;;;;;;;4.57;1.77;;;;;;;3.85;77.96;99327.30;714337;1174;113528;-78
2022/01/31 01:35:55;;;;;;;4.43;1.53;;;;;;;3.62;79.46;99312.50;713791;1174;113764;-76
2022/01/31 01:50:59;;;;;;;4.93;1.33;;;;;;;3.65;81.32;99311.45;713937;1174;114493;-76
2022/01/31 02:06:02;;;;;;;4.70;1.23;;;;;;;3.63;82.72;99305.56;714132;1174;114721;-77
2022/01/31 02:21:04;;;;;;;4.93;1.18;;;;;;;3.57;81.84;99290.45;714061;1174;113674;-76
2022/01/31 02:36:07;;;;;;;3.98;2.10;;;;;;;3.16;83.14;99271.83;713905;1173;114315;-77
2022/01/31 02:51:10;;;;;;;1.73;0.93;;;;;;;2.88;83.12;99279.02;713936;1174;114372;-76
2022/01/31 03:06:12;;;;;;;4.57;1.20;;;;;;;2.87;81.84;99276.55;713791;1167;113548;-77
2022/01/31 03:21:15;;;;;;;4.45;1.85;;;;;;;2.90;80.92;99256.41;713904;1174;113976;-76
2022/01/31 03:36:17;;;;;;;4.55;1.10;;;;;;;3.02;79.67;99236.55;713805;1174;113560;-78
2022/01/31 03:51:19;;;;;;;7.70;3.13;;;;;;;2.98;79.70;99232.53;714156;1174;114216;-76
2022/01/31 04:06:23;;;;;;;4.85;2.48;;;;;;;2.76;79.53;99228.92;714362;1174;114527;-78
2022/01/31 04:21:26;;;;;;;4.10;2.18;;;;;;;2.46;80.47;99232.77;713748;1174;113743;-76
2022/01/31 04:36:28;;;;;;;4.60;2.08;;;;;;;2.22;82.13;99208.61;713843;1174;113855;-76
2022/01/31 04:51:30;;;;;;;12.13;5.03;;;;;;;2.18;82.64;99191.65;713885;1174;113641;-75
2022/01/31 05:06:38;;;;;;;23.65;16.63;;;;;;;2.21;83.21;99199.22;713872;1174;114551;-75
2022/01/31 05:21:40;;;;;;;84.18;42.23;;;;;;;2.27;84.17;99186.67;713911;1203;23152;-77
2022/01/31 05:36:42;;;;;;;78.50;34.43;;;;;;;2.42;83.37;99181.34;713876;1200;23152;-76
2022/01/31 05:52:01;;;;;;;14.50;5.20;;;;;;;2.54;83.76;99183.03;714068;1199;23546;-75
2022/01/31 06:07:03;;;;;;;31.05;8.83;;;;;;;2.50;82.49;99185.01;717669;1166;26143;-77
2022/01/31 06:22:06;;;;;;;27.20;11.75;;;;;;;2.51;81.88;99188.44;713950;1200;26016;-77
2022/01/31 06:37:08;;;;;;;23.65;10.00;;;;;;;2.52;82.06;99197.02;713919;1204;23266;-77
2022/01/31 06:52:10;;;;;;;6.73;2.70;;;;;;;2.49;81.62;99174.77;713768;1203;24584;-76
2022/01/31 07:07:12;;;;;;;19.98;7.93;;;;;;;2.49;79.68;99177.36;713903;1203;27389;-81
2022/01/31 07:22:15;;;;;;;15.35;8.08;;;;;;;2.55;79.48;99168.31;714449;1205;24548;-79
2022/01/31 07:37:17;;;;;;;39.23;14.95;;;;;;;2.60;80.28;99161.03;714399;1170;115505;-80
2022/01/31 07:52:20;;;;;;;20.58;7.45;;;;;;;2.89;79.90;99160.67;714657;1174;113980;-81
2022/01/31 08:07:24;;;;;;;27.23;9.35;;;;;;;3.33;78.19;99151.34;715237;1174;113808;-81
2022/01/31 08:22:27;;;;;;;10.95;5.25;;;;;;;4.11;77.64;99143.62;714118;1174;113853;-72
2022/01/31 08:37:30;;;;;;;12.07;5.97;;;;;;;4.14;75.08;99133.83;715110;1175;113754;-74
2022/01/31 08:52:34;;;;;;;12.17;5.63;;;;;;;4.00;75.27;99126.30;715233;1174;115067;-80
2022/01/31 09:07:37;;;;;;;24.63;9.58;;;;;;;4.33;74.92;99132.35;719405;1166;115044;-81
2022/01/31 09:22:41;;;;;;;80.00;57.00;;;;;;;4.49;74.19;99106.77;716643;1173;115652;-81
2022/01/31 09:37:46;;;;;;;604.70;211.63;;;;;;;4.86;73.85;99102.09;716152;1174;114382;-82
2022/01/31 09:52:49;;;;;;;115.78;41.28;;;;;;;5.97;71.43;99103.09;717148;1173;114441;-85
2022/01/31 10:07:51;;;;;;;45.93;20.93;;;;;;;5.80;68.63;99088.95;717131;1174;114553;-81
2022/01/31 10:22:54;;;;;;;22.65;11.20;;;;;;;6.04;67.41;99091.20;715753;1174;114036;-80
2022/01/31 10:38:03;;;;;;;11.27;5.00;;;;;;;6.36;65.81;99071.91;714922;1174;116298;-81
2022/01/31 10:53:08;;;;;;;8.37;3.20;;;;;;;6.25;64.63;99077.25;714831;1173;113849;-79
2022/01/31 11:08:14;;;;;;;21.48;9.08;;;;;;;5.80;64.16;99065.52;714330;1174;113493;-79
2022/01/31 11:23:22;;;;;;;9.17;4.87;;;;;;;5.71;64.19;99080.15;714066;1174;113879;-77
2022/01/31 11:38:25;;;;;;;68.77;28.40;;;;;;;5.53;65.10;99064.38;714857;1174;113608;-80
2022/01/31 11:53:39;;;;;;;51.53;22.23;;;;;;;6.43;63.80;99051.34;715121;1174;113933;-79
2022/01/31 12:08:43;;;;;;;88.88;32.05;;;;;;;7.40;62.49;99058.03;716819;1173;114051;-82
2022/01/31 12:23:56;;;;;;;136.08;37.23;;;;;;;6.88;62.36;99055.10;715872;1174;115507;-80
2022/01/31 12:38:59;;;;;;;401.80;122.70;;;;;;;7.23;61.49;99056.20;713975;1174;114132;-78
2022/01/31 12:54:04;;;;;;;244.18;85.22;;;;;;;8.04;60.46;99050.25;714213;1174;114434;-78
2022/01/31 13:09:23;;;;;;;50.48;23.35;;;;;;;8.40;59.37;99050.22;714451;1174;114496;-78
2022/01/31 13:24:57;;;;;;;104.27;41.47;;;;;;;8.21;56.75;99058.22;714050;1174;114813;-79
2022/01/31 13:40:10;;;;;;;14.25;6.50;;;;;;;9.40;57.74;99072.61;714100;1174;115767;-78
2022/01/31 13:55:13;;;;;;;31.18;11.95;;;;;;;8.35;56.97;99096.08;713904;1174;115418;-78
2022/01/31 14:10:24;;;;;;;23.53;9.00;;;;;;;13.37;57.12;99097.38;714387;1174;114305;-78
2022/01/31 14:25:36;;;;;;;25.07;9.83;;;;;;;11.67;55.55;99085.20;713949;1174;114240;-84
2022/01/31 14:55:43;;;;;;;43.50;15.17;;;;;;;6.22;56.99;99112.20;715268;1174;114997;-78
2022/01/31 15:10:47;;;;;;;49.55;17.85;;;;;;;5.43;58.14;99113.75;713928;1174;115067;-78
2022/01/31 15:25:49;;;;;;;78.80;24.17;;;;;;;4.93;59.86;99116.23;713977;1173;114574;-81
2022/01/31 15:40:55;;;;;;;50.30;19.93;;;;;;;4.44;60.12;99134.08;713730;1174;114262;-81
2022/01/31 15:55:58;;;;;;;27.17;10.13;;;;;;;4.13;61.78;99152.94;713910;1174;113983;-79
2022/01/31 16:11:01;;;;;;;34.50;12.60;;;;;;;3.82;62.34;99159.70;713977;1173;114934;-81
2022/01/31 16:26:23;;;;;;;63.18;23.85;;;;;;;3.46;63.01;99162.42;714172;1174;114951;-80
2022/01/31 16:41:25;;;;;;;34.43;13.35;;;;;;;3.40;64.87;99160.28;713990;1174;114827;-81
2022/01/31 16:56:28;;;;;;;141.43;45.83;;;;;;;3.10;65.62;99169.45;714741;1174;113976;-81
2022/01/31 17:11:33;;;;;;;121.68;41.60;;;;;;;2.76;66.25;99182.30;714502;1174;114071;-81
2022/01/31 17:26:38;;;;;;;135.43;50.37;;;;;;;2.19;67.47;99203.66;714735;1174;114177;-79
2022/01/31 17:41:42;;;;;;;388.00;119.73;;;;;;;2.20;67.86;99211.31;716291;1174;114297;-79
2022/01/31 17:56:47;;;;;;;476.40;137.70;;;;;;;2.04;68.15;99228.86;714025;1174;115441;-80
2022/01/31 18:11:51;;;;;;;98.55;37.58;;;;;;;1.85;68.26;99239.63;714046;1174;115524;-79
2022/01/31 18:26:55;;;;;;;375.53;112.03;;;;;;;1.77;68.02;99240.15;714183;1174;114783;-79
2022/01/31 18:42:03;;;;;;;85.70;39.37;;;;;;;1.69;67.73;99257.95;714481;1173;114701;-81
2022/01/31 18:57:06;;;;;;;;;;;;;;;1.61;67.49;99255.88;714671;1174;113854;-81
2022/01/31 19:12:19;;;;;;;93.23;37.17;;;;;;;1.27;68.16;99253.79;714286;1173;99985;-81
2022/01/31 19:27:21;;;;;;;34.03;14.18;;;;;;;1.15;68.89;99285.61;714095;1174;114441;-81
2022/01/31 19:57:47;;;;;;;37.68;14.93;;;;;;;1.11;69.60;99308.22;714425;1174;114982;-81
2022/01/31 20:12:56;;;;;;;17.90;7.83;;;;;;;1.07;69.49;99319.69;714069;1174;114090;-81
2022/01/31 20:28:02;;;;;;;60.60;21.25;;;;;;;0.97;69.88;99319.42;714127;1174;113918;-80
2022/01/31 20:43:09;;;;;;;31.08;13.00;;;;;;;0.84;70.37;99354.70;714127;1174;114039;-81
2022/01/31 20:58:14;;;;;;;52.95;19.73;;;;;;;0.72;71.63;99352.89;714471;1174;114077;-80
2022/01/31 21:13:17;;;;;;;33.43;13.73;;;;;;;0.69;72.03;99356.49;714847;1173;114981;-80
2022/01/31 21:28:22;;;;;;;30.65;12.85;;;;;;;0.65;72.61;99367.94;715111;1174;114451;-80
2022/01/31 21:43:38;;;;;;;380.65;104.13;;;;;;;0.55;72.54;99359.91;715356;1174;114172;-82
2022/01/31 21:58:41;;;;;;;293.58;90.65;;;;;;;0.42;72.58;99375.33;715587;1173;116557;-76
2022/01/31 22:13:44;;;;;;;111.90;44.67;;;;;;;0.28;73.74;99390.81;719778;1174;114866;-79
2022/01/31 22:28:47;;;;;;;39.28;17.83;;;;;;;0.45;73.51;99397.52;714977;1173;115311;-79
2022/01/31 22:43:49;;;;;;;20.90;9.95;;;;;;;0.47;73.58;99393.92;714654;1173;115757;-80
2022/01/31 22:58:51;;;;;;;23.63;9.18;;;;;;;0.43;74.49;99389.88;714336;1174;114695;-81
2022/01/31 23:13:59;;;;;;;21.75;8.20;;;;;;;0.30;74.43;99391.53;714340;1174;115342;-84
